Time;durP1;ratioP1;P1;durP2;ratioP2;P2;SDS_P1;SDS_P2;PMS_P1;PMS_P2;Temp;Humidity;BMP_temperature;BMP_pressure;BME280_temperature;BME280_humidity;BME280_pressure;Samples;Min_cycle;Max_cycle;Signal;HPM_P1;HPM_P2
2023/07/28 00:00:26;;;;;;;5.23;3.97;;;;;;;17.12;100.00;97376.03;4994294;28;20215;-78
2023/07/28 00:02:52;;;;;;;3.83;3.20;;;;;;;17.08;100.00;97378.47;4993524;28;20553;-78
2023/07/28 00:05:19;;;;;;;4.20;3.07;;;;;;;17.07;100.00;97378.75;4990529;28;20230;-78
2023/07/28 00:07:45;;;;;;;3.20;2.90;;;;;;;17.17;100.00;97390.25;4993934;28;20212;-78
2023/07/28 00:10:12;;;;;;;3.40;2.83;;;;;;;17.19;100.00;97384.63;4994409;28;20227;-78
2023/07/28 00:12:38;;;;;;;2.77;2.50;;;;;;;17.34;100.00;97384.53;4994577;28;20233;-78
2023/07/28 00:15:05;;;;;;;3.30;2.50;;;;;;;17.38;100.00;97386.34;4993548;28;20313;-78
2023/07/28 00:17:31;;;;;;;3.97;2.37;;;;;;;17.47;100.00;97387.41;4994202;28;20207;-78
2023/07/28 00:19:57;;;;;;;2.43;2.23;;;;;;;17.49;100.00;97389.81;4994623;28;20235;-78
2023/07/28 00:22:24;;;;;;;2.60;2.40;;;;;;;17.54;100.00;97379.84;4992798;28;20195;-78
2023/07/28 00:24:50;;;;;;;3.80;2.30;;;;;;;17.52;100.00;97382.03;4993334;28;20204;-78
2023/07/28 00:27:16;;;;;;;2.40;2.20;;;;;;;17.53;100.00;97380.94;4994817;28;20221;-78
2023/07/28 00:29:43;;;;;;;2.27;2.07;;;;;;;17.56;100.00;97377.66;4994389;28;20227;-78
2023/07/28 00:32:09;;;;;;;3.37;2.23;;;;;;;17.60;100.00;97377.94;4992659;28;20213;-78
2023/07/28 00:34:36;;;;;;;3.40;2.37;;;;;;;17.54;100.00;97379.03;4994668;28;20211;-78
2023/07/28 00:37:02;;;;;;;2.10;2.00;;;;;;;17.61;100.00;97380.34;4995909;28;20211;-78
2023/07/28 00:39:28;;;;;;;2.50;2.30;;;;;;;17.67;100.00;97373.03;4996807;28;20778;-78
2023/07/28 00:41:55;;;;;;;2.20;2.00;;;;;;;17.79;100.00;97370.81;4997056;28;20207;-77
2023/07/28 00:44:21;;;;;;;3.23;2.30;;;;;;;17.79;100.00;97370.81;4993595;28;20199;-78
2023/07/28 00:46:48;;;;;;;2.73;2.13;;;;;;;17.75;100.00;97369.75;4997406;28;20207;-78
2023/07/28 00:49:14;;;;;;;2.83;2.20;;;;;;;17.70;100.00;97373.28;4997051;28;20246;-78
2023/07/28 00:51:41;;;;;;;2.43;2.23;;;;;;;17.72;100.00;97371.13;4997938;28;20219;-78
2023/07/28 00:54:08;;;;;;;2.70;2.43;;;;;;;17.70;100.00;97373.28;4998025;28;20226;-78
2023/07/28 00:56:35;;;;;;;2.47;2.23;;;;;;;17.79;100.00;97366.25;4996469;28;20203;-77
2023/07/28 00:59:01;;;;;;;2.13;1.93;;;;;;;17.86;100.00;97372.06;4997942;28;20223;-78
2023/07/28 01:01:28;;;;;;;4.17;2.20;;;;;;;17.82;100.00;97371.03;4997519;28;20679;-78
2023/07/28 01:03:54;;;;;;;3.00;2.43;;;;;;;17.77;100.00;97360.31;4997882;28;20203;-78
2023/07/28 01:06:54;;;;;;;2.73;2.13;;;;;;;17.85;100.00;97370.47;4996808;28;20218;-78
2023/07/28 01:09:25;;;;;;;2.60;2.40;;;;;;;17.91;100.00;97363.19;4997712;28;20231;-78
2023/07/28 01:11:55;;;;;;;2.00;1.90;;;;;;;17.84;100.00;97368.88;4996187;28;20226;-78
2023/07/28 01:14:21;;;;;;;3.00;2.20;;;;;;;17.78;100.00;97367.28;4997244;28;20238;-78
2023/07/28 01:16:48;;;;;;;2.20;2.00;;;;;;;17.71;100.00;97368.72;4997899;28;20217;-78
2023/07/28 01:19:18;;;;;;;2.47;2.10;;;;;;;17.61;100.00;97364.22;4997343;28;20227;-78
2023/07/28 01:21:49;;;;;;;3.40;2.23;;;;;;;17.61;100.00;97355.34;4997727;28;20207;-78
2023/07/28 01:24:22;;;;;;;2.40;2.20;;;;;;;17.54;100.00;97358.34;4996988;28;20195;-79
2023/07/28 01:26:51;;;;;;;2.87;2.27;;;;;;;17.48;100.00;97358.66;4997573;28;20198;-78
2023/07/28 01:29:19;;;;;;;2.17;1.87;;;;;;;17.44;100.00;97353.06;4997350;28;20231;-78
2023/07/28 01:31:48;;;;;;;4.20;2.27;;;;;;;17.38;100.00;97356.81;4997773;28;20285;-79
2023/07/28 01:34:15;;;;;;;3.93;2.13;;;;;;;17.32;100.00;97355.22;4996389;28;20219;-79
2023/07/28 01:36:41;;;;;;;2.60;2.40;;;;;;;17.30;100.00;97351.22;4997248;28;20214;-78
2023/07/28 01:39:08;;;;;;;3.00;2.43;;;;;;;17.31;100.00;97347.44;4997226;28;20623;-78
2023/07/28 01:41:34;;;;;;;3.27;2.33;;;;;;;17.32;100.00;97352.56;4997279;28;20213;-78
2023/07/28 01:44:00;;;;;;;2.33;2.13;;;;;;;17.38;100.00;97348.75;4995949;28;20207;-78
2023/07/28 01:46:27;;;;;;;2.20;2.10;;;;;;;17.33;100.00;97339.94;4996912;28;20211;-78
2023/07/28 01:48:53;;;;;;;3.10;2.40;;;;;;;17.32;100.00;97347.19;4996709;28;20614;-79
2023/07/28 01:51:19;;;;;;;2.43;2.00;;;;;;;17.35;100.00;97348.50;4996138;28;20654;-78
2023/07/28 01:53:46;;;;;;;3.73;1.90;;;;;;;17.38;100.00;97343.38;4993749;28;20708;-78
2023/07/28 01:56:12;;;;;;;3.60;2.13;;;;;;;17.37;100.00;97347.13;4996398;28;20674;-78
2023/07/28 01:58:38;;;;;;;3.10;2.30;;;;;;;17.45;100.00;97343.09;4995400;28;20242;-78
2023/07/28 02:01:05;;;;;;;3.40;2.27;;;;;;;17.37;100.00;97336.38;4996787;28;20207;-78
2023/07/28 02:03:31;;;;;;;2.30;2.20;;;;;;;17.34;100.00;97336.97;4996760;28;20215;-78
2023/07/28 02:05:57;;;;;;;2.17;2.00;;;;;;;17.36;100.00;97329.41;4996208;28;20207;-78
2023/07/28 02:08:24;;;;;;;2.67;2.30;;;;;;;17.34;100.00;97344.22;4995692;28;20238;-78
2023/07/28 02:10:50;;;;;;;2.60;2.07;;;;;;;17.54;100.00;97331.47;4996152;28;20211;-78
2023/07/28 02:13:16;;;;;;;2.10;2.00;;;;;;;17.52;100.00;97339.03;4996047;28;20225;-78
2023/07/28 02:15:43;;;;;;;2.43;2.20;;;;;;;17.50;100.00;97340.38;4996078;28;20208;-78
2023/07/28 02:18:09;;;;;;;2.43;2.20;;;;;;;17.44;100.00;97331.56;4995169;28;20212;-78
2023/07/28 02:20:36;;;;;;;2.30;2.10;;;;;;;17.39;100.00;97339.66;4996262;28;20207;-78
2023/07/28 02:23:02;;;;;;;2.60;2.40;;;;;;;17.33;100.00;97327.28;4995185;28;20216;-78
2023/07/28 02:25:29;;;;;;;3.73;2.30;;;;;;;17.43;100.00;97324.59;4995294;28;20215;-78
2023/07/28 02:27:55;;;;;;;2.60;2.40;;;;;;;17.46;100.00;97332.06;4993691;28;20203;-78
2023/07/28 02:30:22;;;;;;;1.90;1.80;;;;;;;17.46;100.00;97350.09;4996367;28;20298;-78
2023/07/28 02:32:48;;;;;;;3.70;2.20;;;;;;;17.48;100.00;97342.53;4995281;28;20218;-78
2023/07/28 02:35:14;;;;;;;2.83;2.23;;;;;;;17.43;100.00;97343.38;4996114;28;20211;-78
2023/07/28 02:37:41;;;;;;;2.97;2.40;;;;;;;17.44;100.00;97363.81;4996156;28;20211;-78
2023/07/28 02:40:08;;;;;;;2.63;2.40;;;;;;;17.43;100.00;97353.31;4995811;28;20227;-78
2023/07/28 02:42:35;;;;;;;2.60;2.40;;;;;;;17.43;100.00;97350.63;4995679;28;20298;-78
2023/07/28 02:45:02;;;;;;;3.00;2.33;;;;;;;17.37;100.00;97357.09;4994899;28;20200;-78
2023/07/28 02:47:28;;;;;;;6.20;2.37;;;;;;;17.32;100.00;97363.31;4995839;28;20229;-78
2023/07/28 02:49:55;;;;;;;5.20;2.70;;;;;;;17.26;100.00;97364.41;4995260;28;20610;-78
2023/07/28 02:52:21;;;;;;;3.37;2.80;;;;;;;17.29;100.00;97373.81;4994824;28;20237;-78
2023/07/28 02:54:50;;;;;;;2.73;2.30;;;;;;;17.23;100.00;97383.75;4995296;28;20227;-78
2023/07/28 02:57:16;;;;;;;4.13;2.90;;;;;;;17.18;100.00;97386.47;4995204;28;20203;-78
2023/07/28 02:59:42;;;;;;;3.50;2.90;;;;;;;17.11;100.00;97385.19;4995067;28;20227;-78
2023/07/28 03:02:09;;;;;;;3.13;2.70;;;;;;;17.03;100.00;97383.06;4994720;28;20208;-78
2023/07/28 03:04:35;;;;;;;4.37;2.97;;;;;;;16.94;100.00;97376.66;4994790;28;20686;-78
2023/07/28 03:07:02;;;;;;;3.23;2.93;;;;;;;16.92;100.00;97392.25;4994942;28;20261;-78
2023/07/28 03:09:28;;;;;;;4.10;2.70;;;;;;;16.90;100.00;97391.72;4994191;28;20227;-78
2023/07/28 03:11:55;;;;;;;3.23;2.90;;;;;;;17.02;100.00;97392.22;4994814;28;20208;-78
2023/07/28 03:14:22;;;;;;;4.07;3.07;;;;;;;17.04;100.00;97393.53;4994731;28;20227;-78
2023/07/28 03:16:49;;;;;;;3.30;2.97;;;;;;;17.05;100.00;97400.50;4994948;28;20298;-78
2023/07/28 03:19:15;;;;;;;4.70;3.10;;;;;;;17.05;100.00;97397.03;4993960;28;20231;-78
2023/07/28 03:21:41;;;;;;;3.03;2.83;;;;;;;17.06;100.00;97404.00;4994016;28;20216;-79
2023/07/28 03:24:08;;;;;;;4.00;3.20;;;;;;;17.04;100.00;97417.72;4994465;28;20203;-79
2023/07/28 03:26:34;;;;;;;3.37;3.00;;;;;;;16.96;100.00;97409.44;4993947;28;20226;-78
2023/07/28 03:29:00;;;;;;;3.67;2.97;;;;;;;17.03;100.00;97423.34;4994373;28;20227;-78
2023/07/28 03:31:27;;;;;;;3.27;2.97;;;;;;;17.01;100.00;97425.53;4994504;28;20555;-78
2023/07/28 03:33:53;;;;;;;3.50;2.63;;;;;;;17.22;100.00;97427.84;4994621;28;20232;-78
2023/07/28 03:36:20;;;;;;;3.13;2.87;;;;;;;17.14;100.00;97433.78;4994859;28;20203;-78
2023/07/28 03:38:47;;;;;;;3.50;3.20;;;;;;;17.15;100.00;97434.59;4992895;28;20231;-78
2023/07/28 03:41:14;;;;;;;2.80;2.57;;;;;;;17.15;100.00;97439.97;4994606;28;20674;-80
2023/07/28 03:43:41;;;;;;;4.23;3.07;;;;;;;17.12;100.00;97444.00;4995149;28;20200;-79
2023/07/28 03:46:07;;;;;;;6.40;3.00;;;;;;;17.02;100.00;97446.72;4993490;28;20656;-78
2023/07/28 03:48:34;;;;;;;3.67;2.60;;;;;;;16.99;100.00;97447.28;4994324;28;20227;-78
2023/07/28 03:51:00;;;;;;;3.10;2.80;;;;;;;16.96;100.00;97445.13;4994891;28;20215;-78
2023/07/28 03:53:26;;;;;;;3.77;2.20;;;;;;;16.94;100.00;97447.28;4994807;28;20223;-78
2023/07/28 03:55:53;;;;;;;3.03;2.67;;;;;;;17.02;100.00;97454.78;4994953;28;20277;-78
2023/07/28 03:58:20;;;;;;;3.07;2.87;;;;;;;17.05;100.00;97451.53;4994505;28;20258;-78
2023/07/28 04:00:46;;;;;;;3.90;2.80;;;;;;;17.10;100.00;97448.81;4994014;28;20207;-78
2023/07/28 04:03:12;;;;;;;2.47;2.27;;;;;;;17.18;100.00;97436.72;4993689;28;20246;-79
2023/07/28 04:05:39;;;;;;;4.13;2.97;;;;;;;17.24;100.00;97439.09;4993017;28;20654;-78
2023/07/28 04:08:05;;;;;;;3.03;2.73;;;;;;;17.22;100.00;97433.22;4991652;28;20231;-78
2023/07/28 04:10:32;;;;;;;2.63;2.40;;;;;;;17.21;100.00;97439.66;4993259;28;20215;-78
2023/07/28 04:12:58;;;;;;;2.80;2.60;;;;;;;17.20;100.00;97451.47;4994737;28;20219;-78
2023/07/28 04:15:24;;;;;;;3.07;2.50;;;;;;;17.18;100.00;97450.94;4994211;28;20229;-78
2023/07/28 04:17:51;;;;;;;3.27;2.97;;;;;;;17.12;100.00;97443.19;4994310;28;20214;-78
2023/07/28 04:20:17;;;;;;;2.90;2.60;;;;;;;17.11;100.00;97445.09;4993886;28;20329;-78
2023/07/28 04:22:43;;;;;;;2.53;2.33;;;;;;;17.05;100.00;97435.41;4992513;28;20210;-78
2023/07/28 04:25:10;;;;;;;3.33;2.57;;;;;;;17.06;100.00;97428.97;4993863;28;20199;-78
2023/07/28 04:27:36;;;;;;;4.00;2.70;;;;;;;17.08;100.00;97429.50;4993675;28;20214;-78
2023/07/28 04:30:02;;;;;;;2.97;2.73;;;;;;;17.06;100.00;97428.97;4993857;28;20571;-78
2023/07/28 04:32:29;;;;;;;3.73;2.60;;;;;;;17.03;100.00;97423.34;4994138;28;20567;-78
2023/07/28 04:34:55;;;;;;;4.80;2.93;;;;;;;17.04;100.00;97419.56;4993924;28;20254;-78
2023/07/28 04:37:22;;;;;;;2.30;2.20;;;;;;;17.05;100.00;97421.22;4993531;28;20225;-79
2023/07/28 04:39:48;;;;;;;3.80;2.60;;;;;;;17.02;100.00;97421.75;4994129;28;20215;-79
2023/07/28 04:42:14;;;;;;;5.87;2.57;;;;;;;17.08;100.00;97418.78;4994269;28;20211;-78
2023/07/28 04:44:41;;;;;;;2.87;2.57;;;;;;;17.04;100.00;97416.91;4993715;28;20214;-78
2023/07/28 04:47:07;;;;;;;2.97;2.77;;;;;;;17.07;100.00;97409.13;4993399;28;20231;-78
2023/07/28 04:49:34;;;;;;;5.67;3.30;;;;;;;17.00;100.00;97415.84;4992017;28;20235;-77
2023/07/28 04:52:00;;;;;;;3.10;2.80;;;;;;;16.94;100.00;97415.06;4993378;28;20199;-77
2023/07/28 04:54:26;;;;;;;3.67;2.60;;;;;;;16.92;100.00;97422.56;4992632;28;20219;-77
2023/07/28 04:56:53;;;;;;;3.57;3.00;;;;;;;16.92;100.00;97427.16;4992953;28;20206;-77
2023/07/28 04:59:21;;;;;;;3.53;3.10;;;;;;;16.89;100.00;97422.34;4991073;28;20319;-79
2023/07/28 05:01:47;;;;;;;3.87;2.90;;;;;;;16.86;100.00;97425.56;4992697;28;20203;-79
2023/07/28 05:04:13;;;;;;;3.20;2.90;;;;;;;16.86;100.00;97422.88;4992330;28;20203;-78
2023/07/28 05:06:40;;;;;;;4.37;3.00;;;;;;;16.83;100.00;97428.81;4992013;28;20207;-77
2023/07/28 05:09:06;;;;;;;3.90;3.10;;;;;;;16.84;100.00;97444.66;4991588;28;20231;-77
2023/07/28 05:11:32;;;;;;;3.80;3.37;;;;;;;16.81;100.00;97450.56;4992248;28;20246;-77
2023/07/28 05:13:59;;;;;;;4.00;3.60;;;;;;;16.82;100.00;97446.78;4991680;28;20309;-77
2023/07/28 05:16:25;;;;;;;4.47;3.57;;;;;;;16.80;100.00;97453.50;4992968;28;20570;-77
2023/07/28 05:18:51;;;;;;;4.20;3.80;;;;;;;16.82;100.00;97444.09;4993684;28;20223;-77
2023/07/28 05:21:18;;;;;;;4.70;4.20;;;;;;;16.79;100.00;97449.22;4993229;28;20213;-76
2023/07/28 05:23:44;;;;;;;5.13;3.93;;;;;;;16.81;100.00;97450.56;4996435;28;20206;-76
2023/07/28 05:26:10;;;;;;;6.17;4.10;;;;;;;16.84;100.00;97458.06;4996704;28;20214;-76
2023/07/28 05:28:37;;;;;;;5.53;4.10;;;;;;;16.86;100.00;97460.47;4996683;28;20238;-76
2023/07/28 05:31:07;;;;;;;8.40;4.73;;;;;;;16.84;100.00;97459.94;4997377;28;20213;-77
2023/07/28 05:33:33;;;;;;;6.00;4.60;;;;;;;16.84;100.00;97454.56;4996157;28;20222;-76
2023/07/28 05:36:03;;;;;;;5.70;4.33;;;;;;;16.85;100.00;97458.84;4996213;28;20211;-76
2023/07/28 05:38:29;;;;;;;6.37;4.87;;;;;;;16.89;100.00;97463.41;4996045;28;20748;-76
2023/07/28 05:41:00;;;;;;;6.47;5.10;;;;;;;16.92;100.00;97460.16;4996155;28;20698;-76
2023/07/28 05:43:30;;;;;;;6.17;4.90;;;;;;;16.97;100.00;97459.38;4996279;28;20211;-76
2023/07/28 05:46:00;;;;;;;6.77;4.67;;;;;;;17.00;100.00;97470.34;4996426;28;20214;-76
2023/07/28 05:48:27;;;;;;;4.77;4.27;;;;;;;16.99;100.00;97470.63;4996340;28;20223;-77
2023/07/28 05:50:54;;;;;;;5.77;4.63;;;;;;;17.02;100.00;97467.41;4996498;28;20211;-77
2023/07/28 05:53:22;;;;;;;5.63;4.43;;;;;;;17.04;100.00;97475.97;4996242;28;20269;-77
2023/07/28 05:55:48;;;;;;;7.00;5.03;;;;;;;17.02;100.00;97472.78;4996202;28;20235;-77
2023/07/28 05:58:15;;;;;;;7.13;5.10;;;;;;;17.01;100.00;97473.84;4996129;28;20229;-77
2023/07/28 06:00:42;;;;;;;6.70;5.60;;;;;;;17.02;100.00;97472.78;4996076;28;20207;-77
2023/07/28 06:03:11;;;;;;;6.67;4.90;;;;;;;17.05;100.00;97475.72;4995900;28;20678;-77
2023/07/28 06:05:40;;;;;;;5.97;4.80;;;;;;;17.07;100.00;97480.81;4995740;28;20683;-77
2023/07/28 06:08:06;;;;;;;6.50;5.30;;;;;;;17.10;100.00;97482.97;4995834;28;20212;-77
2023/07/28 06:10:33;;;;;;;5.37;4.97;;;;;;;17.13;100.00;97485.91;4995687;28;20207;-77
2023/07/28 06:12:59;;;;;;;5.23;4.73;;;;;;;17.15;100.00;97499.84;4995587;28;20207;-77
2023/07/28 06:15:26;;;;;;;5.47;4.97;;;;;;;17.29;100.00;97487.44;4995372;28;20789;-77
2023/07/28 06:17:52;;;;;;;5.63;5.10;;;;;;;17.23;100.00;97487.75;4995821;28;20229;-77
2023/07/28 06:20:19;;;;;;;5.33;4.60;;;;;;;17.21;100.00;97485.34;4995930;28;20227;-77
2023/07/28 06:22:45;;;;;;;7.10;4.93;;;;;;;17.22;100.00;97486.13;4995363;28;20666;-76
2023/07/28 06:25:11;;;;;;;8.83;4.30;;;;;;;17.23;100.00;97487.75;4995323;28;20207;-76
2023/07/28 06:27:38;;;;;;;6.03;4.80;;;;;;;17.24;100.00;97484.75;4995171;28;20217;-76
2023/07/28 06:30:05;;;;;;;6.20;4.83;;;;;;;17.28;100.00;97491.19;4995586;28;20227;-76
2023/07/28 06:32:32;;;;;;;6.93;4.83;;;;;;;17.28;100.00;97491.19;4995308;28;20211;-76
2023/07/28 06:34:58;;;;;;;4.93;4.30;;;;;;;17.30;100.00;97499.81;4994549;28;20230;-77
2023/07/28 06:37:24;;;;;;;6.37;4.57;;;;;;;17.31;100.00;97495.22;4995421;28;20211;-77
2023/07/28 06:39:51;;;;;;;7.73;4.57;;;;;;;17.30;100.00;97510.56;4995209;28;20235;-77
2023/07/28 06:42:23;;;;;;;4.90;4.43;;;;;;;17.31;100.00;97506.78;4994891;28;20578;-77
2023/07/28 06:44:50;;;;;;;4.63;4.17;;;;;;;17.31;100.00;97517.53;4994939;28;20675;-77
2023/07/28 06:47:16;;;;;;;5.07;4.47;;;;;;;17.35;100.00;97520.47;4995846;28;20218;-77
2023/07/28 06:49:42;;;;;;;5.83;4.87;;;;;;;17.37;100.00;97511.03;4995059;28;20243;-77
2023/07/28 06:52:09;;;;;;;5.97;4.20;;;;;;;17.41;100.00;97496.00;4995296;28;20207;-77
2023/07/28 06:54:35;;;;;;;5.13;4.37;;;;;;;17.49;100.00;97505.38;4995179;28;20219;-77
2023/07/28 06:57:02;;;;;;;6.40;4.67;;;;;;;17.57;100.00;97510.19;4994863;28;20671;-77
2023/07/28 06:59:28;;;;;;;7.43;5.00;;;;;;;17.62;100.00;97510.97;4994946;28;20231;-77
2023/07/28 07:01:54;;;;;;;6.03;4.87;;;;;;;17.62;100.00;97513.66;4995317;28;20229;-77
2023/07/28 07:04:21;;;;;;;5.10;4.60;;;;;;;17.76;100.00;97521.91;4995076;28;20311;-76
2023/07/28 07:06:47;;;;;;;7.63;4.70;;;;;;;17.79;100.00;97518.69;4994659;28;20262;-77
2023/07/28 07:09:14;;;;;;;6.77;4.70;;;;;;;17.84;100.00;97522.16;4995624;28;20737;-75
2023/07/28 07:11:41;;;;;;;7.03;5.47;;;;;;;17.85;100.00;97521.06;4995149;28;20203;-75
2023/07/28 07:14:08;;;;;;;5.33;4.37;;;;;;;17.90;100.00;97522.91;4995482;28;20203;-75
2023/07/28 07:16:35;;;;;;;5.20;4.20;;;;;;;17.93;100.00;97520.50;4994850;28;20265;-75
2023/07/28 07:19:01;;;;;;;5.20;4.40;;;;;;;17.99;100.00;97522.06;4994032;28;20250;-75
2023/07/28 07:21:30;;;;;;;5.80;4.97;;;;;;;18.06;100.00;97525.22;4994438;28;20214;-75
2023/07/28 07:23:57;;;;;;;5.83;4.70;;;;;;;18.15;100.00;97537.00;4994271;28;20211;-75
2023/07/28 07:26:23;;;;;;;5.50;5.00;;;;;;;18.13;100.00;97532.97;4994227;28;20211;-75
2023/07/28 07:28:49;;;;;;;6.30;5.00;;;;;;;18.22;100.00;97539.38;4994500;28;20227;-75
2023/07/28 07:31:16;;;;;;;6.73;5.20;;;;;;;18.23;100.00;97533.72;4994511;28;20207;-75
2023/07/28 07:33:43;;;;;;;6.10;5.23;;;;;;;18.23;100.00;97533.72;4994342;28;20218;-75
2023/07/28 07:36:16;;;;;;;6.30;5.47;;;;;;;18.34;100.00;97527.22;4994534;28;20227;-75
2023/07/28 07:38:45;;;;;;;9.07;5.80;;;;;;;18.45;100.00;97536.81;4994520;28;20227;-75
2023/07/28 07:41:12;;;;;;;7.53;5.83;;;;;;;18.73;100.00;97532.56;4994416;28;20207;-75
2023/07/28 07:43:39;;;;;;;10.27;6.17;;;;;;;18.68;100.00;97536.09;4994441;28;20207;-75
2023/07/28 07:46:06;;;;;;;9.90;5.80;;;;;;;18.62;100.00;97536.41;4994195;28;20199;-74
2023/07/28 07:48:32;;;;;;;7.80;5.90;;;;;;;18.53;100.00;97548.88;4994185;28;20233;-74
2023/07/28 07:50:58;;;;;;;7.87;5.67;;;;;;;18.55;100.00;97547.50;4993835;28;20296;-74
2023/07/28 07:53:25;;;;;;;9.30;5.30;;;;;;;18.42;100.00;97547.34;4994066;28;20207;-74
2023/07/28 07:55:51;;;;;;;6.47;5.70;;;;;;;18.45;100.00;97550.28;4993804;28;20720;-75
2023/07/28 07:58:17;;;;;;;6.97;5.43;;;;;;;18.43;100.00;97555.16;4993692;28;20235;-75
2023/07/28 08:00:44;;;;;;;7.97;5.47;;;;;;;18.48;100.00;97552.41;4994076;28;20234;-74
2023/07/28 08:03:11;;;;;;;7.07;5.87;;;;;;;18.60;100.00;97549.38;4993928;28;20732;-74
2023/07/28 08:05:37;;;;;;;6.07;5.20;;;;;;;18.68;100.00;97554.94;4993730;28;20199;-74
2023/07/28 08:08:05;;;;;;;8.47;6.50;;;;;;;18.69;100.00;97556.53;4993620;28;20215;-74
2023/07/28 08:10:32;;;;;;;9.93;5.70;;;;;;;18.73;100.00;97560.28;4993840;28;20215;-74
2023/07/28 08:12:59;;;;;;;6.60;5.83;;;;;;;18.83;100.00;97559.41;4992754;28;20211;-74
2023/07/28 08:15:26;;;;;;;11.23;6.50;;;;;;;18.75;100.00;97558.13;4993673;28;20263;-74
2023/07/28 08:17:52;;;;;;;6.83;5.70;;;;;;;18.77;100.00;97569.41;4993708;28;20207;-75
2023/07/28 08:20:19;;;;;;;7.47;5.60;;;;;;;18.78;100.00;97571.00;4993611;28;20752;-75
2023/07/28 08:22:45;;;;;;;7.70;5.53;;;;;;;18.79;100.00;97575.31;4993854;28;20211;-77
2023/07/28 08:25:11;;;;;;;5.70;5.10;;;;;;;18.76;100.00;97578.56;4993950;28;20199;-77
2023/07/28 08:27:38;;;;;;;8.10;5.33;;;;;;;18.68;100.00;97578.38;4994098;28;20213;-75
2023/07/28 08:30:05;;;;;;;5.27;4.70;;;;;;;18.66;100.00;97584.03;4995148;28;20290;-75
2023/07/28 08:32:32;;;;;;;6.40;4.90;;;;;;;18.65;100.00;97589.72;4995454;28;20207;-75
2023/07/28 08:34:58;;;;;;;6.87;4.77;;;;;;;18.64;100.00;97594.28;4995001;28;20702;-75
2023/07/28 08:37:24;;;;;;;5.13;4.40;;;;;;;18.68;100.00;97598.00;4995433;28;20211;-76
2023/07/28 08:39:51;;;;;;;6.57;4.83;;;;;;;18.70;100.00;97597.75;4995595;28;20230;-76
2023/07/28 08:42:17;;;;;;;5.27;3.90;;;;;;;18.72;100.00;97591.00;4995297;28;20208;-77
2023/07/28 08:44:45;;;;;;;5.63;4.73;;;;;;;18.75;100.00;97598.50;4995390;28;20203;-76
2023/07/28 08:47:12;;;;;;;5.00;4.23;;;;;;;18.73;100.00;97594.50;4995604;28;20298;-77
2023/07/28 08:49:38;;;;;;;4.93;4.43;;;;;;;18.78;100.00;97595.25;4994908;28;20579;-76
2023/07/28 08:52:06;;;;;;;4.43;4.03;;;;;;;18.83;100.00;97597.88;4994994;28;20203;-77
2023/07/28 08:54:33;;;;;;;4.80;4.10;;;;;;;18.92;100.00;97598.09;4994649;28;20207;-73
2023/07/28 08:56:59;;;;;;;5.80;4.03;;;;;;;18.93;100.00;97597.00;4994520;28;20212;-73
2023/07/28 08:59:27;;;;;;;6.30;4.30;;;;;;;18.95;100.00;97605.63;4998249;28;20234;-73
2023/07/28 09:01:55;;;;;;;4.20;3.77;;;;;;;19.07;100.00;97598.78;4998217;28;20285;-73
2023/07/28 09:04:22;;;;;;;4.97;3.30;;;;;;;19.16;100.00;97604.34;4998545;28;20207;-73
2023/07/28 09:06:50;;;;;;;4.27;3.23;;;;;;;19.19;100.00;97603.78;4998223;28;20233;-73
2023/07/28 09:09:17;;;;;;;4.53;3.40;;;;;;;19.28;100.00;97615.56;4998023;28;20710;-73
2023/07/28 09:11:51;;;;;;;3.57;3.37;;;;;;;19.34;100.00;97607.16;4997953;28;20657;-73
2023/07/28 09:14:18;;;;;;;4.20;3.80;;;;;;;19.48;100.00;97609.19;4997886;28;20253;-73
2023/07/28 09:16:45;;;;;;;4.70;3.47;;;;;;;19.62;100.00;97604.69;4998129;28;20239;-73
2023/07/28 09:19:12;;;;;;;6.87;4.40;;;;;;;19.60;100.00;97607.69;4997907;28;20227;-73
2023/07/28 09:21:41;;;;;;;15.57;9.10;;;;;;;19.58;100.00;97599.88;4997790;28;20746;-73
2023/07/28 09:24:09;;;;;;;12.27;7.00;;;;;;;19.62;100.00;97604.69;4997987;28;20219;-73
2023/07/28 09:26:48;;;;;;;7.73;6.30;;;;;;;19.63;100.00;97607.91;4997517;28;20671;-73
2023/07/28 09:29:17;;;;;;;8.47;5.30;;;;;;;19.63;100.00;97606.31;4996804;28;20226;-73
2023/07/28 09:31:45;;;;;;;10.40;5.93;;;;;;;19.51;100.00;97602.09;4997858;28;20212;-73
2023/07/28 09:34:13;;;;;;;6.43;5.07;;;;;;;19.63;100.00;97601.72;4997998;28;20286;-73
2023/07/28 09:36:40;;;;;;;6.23;5.10;;;;;;;19.68;100.00;97605.16;4997904;28;20318;-73
2023/07/28 09:39:08;;;;;;;7.20;5.00;;;;;;;19.77;100.00;97607.22;4997137;28;20231;-73
2023/07/28 09:41:38;;;;;;;6.40;5.80;;;;;;;19.99;100.00;97610.97;4997435;28;20302;-73
2023/07/28 09:44:06;;;;;;;7.40;4.90;;;;;;;20.05;100.00;97609.00;4997627;28;20625;-73
2023/07/28 09:46:36;;;;;;;5.43;4.70;;;;;;;20.11;100.00;97600.59;4997571;28;20203;-73
2023/07/28 09:49:06;;;;;;;6.47;4.83;;;;;;;20.20;100.00;97614.22;4997568;28;20224;-73
2023/07/28 09:51:36;;;;;;;5.93;4.87;;;;;;;20.25;100.00;97606.88;4997635;28;20298;-73
2023/07/28 09:54:12;;;;;;;6.43;5.00;;;;;;;20.29;100.00;97596.28;4997585;28;20215;-73
2023/07/28 09:56:39;;;;;;;7.27;4.70;;;;;;;20.29;100.00;97596.28;4997795;28;20211;-73
2023/07/28 09:59:12;;;;;;;6.77;5.50;;;;;;;20.31;100.00;97603.03;4996973;28;20218;-73
2023/07/28 10:01:40;;;;;;;5.30;4.80;;;;;;;20.25;100.00;97606.09;4997578;28;20539;-74
2023/07/28 10:04:07;;;;;;;5.60;4.80;;;;;;;20.25;100.00;97601.47;4997477;28;20671;-74
2023/07/28 10:06:34;;;;;;;6.50;4.50;;;;;;;20.41;100.00;97608.28;4997808;28;20290;-74
2023/07/28 10:09:01;;;;;;;6.17;4.70;;;;;;;20.35;100.00;97609.44;4996832;28;20234;-73
2023/07/28 10:11:28;;;;;;;8.55;4.93;;;;;;;20.34;100.00;97602.44;4997806;28;20203;-74
2023/07/28 10:13:55;;;;;;;9.23;5.20;;;;;;;20.41;100.00;97604.75;4997280;28;20239;-74
2023/07/28 10:16:32;;;;;;;6.47;4.97;;;;;;;20.52;100.00;97609.72;4997148;28;20227;-74
2023/07/28 10:19:00;;;;;;;7.55;4.47;;;;;;;20.59;100.00;97612.06;4996914;28;20289;-73
2023/07/28 10:21:29;;;;;;;6.57;4.00;;;;;;;20.43;100.00;97618.78;4996963;28;20605;-74
2023/07/28 10:23:58;;;;;;;4.47;3.77;;;;;;;20.37;100.00;97611.84;4996903;28;20287;-74
2023/07/28 10:26:38;;;;;;;4.40;3.90;;;;;;;20.32;100.00;97620.00;4997302;28;20239;-74
2023/07/28 10:29:15;;;;;;;4.13;3.73;;;;;;;20.21;100.00;97618.56;4996222;28;20231;-74
2023/07/28 10:31:53;;;;;;;6.07;3.97;;;;;;;20.17;100.00;97629.09;4996996;28;20202;-74
2023/07/28 10:34:21;;;;;;;4.10;3.80;;;;;;;20.06;100.00;97626.81;4996352;28;20210;-73
2023/07/28 10:36:48;;;;;;;4.57;3.67;;;;;;;20.06;100.00;97626.81;4995832;28;20218;-74
2023/07/28 10:39:17;;;;;;;6.63;3.97;;;;;;;20.00;100.00;97626.09;4996232;28;20231;-73
2023/07/28 10:42:03;;;;;;;3.97;3.53;;;;;;;19.98;100.00;97628.25;4995902;28;20250;-73
2023/07/28 10:44:30;;;;;;;4.47;3.13;;;;;;;19.97;100.00;97628.53;4995970;28;20227;-73
2023/07/28 10:46:57;;;;;;;4.27;3.57;;;;;;;20.00;100.00;97625.28;4996241;28;20565;-73
2023/07/28 10:49:26;;;;;;;4.97;3.63;;;;;;;20.13;100.00;97625.41;4996335;28;20616;-73
2023/07/28 10:51:52;;;;;;;3.90;3.50;;;;;;;20.26;100.00;97632.78;4996815;28;20634;-73
2023/07/28 10:54:19;;;;;;;3.90;3.50;;;;;;;20.43;100.00;97627.69;4996176;28;20204;-73
2023/07/28 10:56:48;;;;;;;4.30;3.60;;;;;;;20.48;100.00;97632.22;4996309;28;20266;-73
2023/07/28 10:59:15;;;;;;;3.67;3.37;;;;;;;20.47;100.00;97627.88;4996034;28;20235;-74
2023/07/28 11:01:42;;;;;;;3.40;3.20;;;;;;;20.47;100.00;97625.19;4995802;28;20211;-74
2023/07/28 11:04:19;;;;;;;3.20;2.90;;;;;;;20.51;100.00;97628.91;4996288;28;20207;-74
2023/07/28 11:06:48;;;;;;;3.00;2.80;;;;;;;20.59;100.00;97634.47;4996185;28;20203;-74
2023/07/28 11:09:18;;;;;;;3.28;3.08;;;;;;;20.84;100.00;97625.19;4996080;28;20227;-74
2023/07/28 11:11:45;;;;;;;3.58;3.28;;;;;;;20.89;100.00;97633.22;4996081;28;20560;-74
2023/07/28 11:14:12;;;;;;;5.55;2.80;;;;;;;21.12;100.00;97629.59;4995751;28;20210;-74
2023/07/28 11:16:41;;;;;;;4.30;3.15;;;;;;;21.33;100.00;97636.25;4996016;28;20227;-74
2023/07/28 11:19:13;;;;;;;3.50;2.50;;;;;;;21.45;100.00;97634.69;4996206;28;20681;-74
2023/07/28 11:21:40;;;;;;;2.42;1.85;;;;;;;21.45;100.00;97644.69;4995694;28;20238;-74
2023/07/28 11:24:11;;;;;;;3.80;1.90;;;;;;;21.56;100.00;97633.38;4996305;28;20213;-77